Time;durP1;ratioP1;P1;durP2;ratioP2;P2;SDS_P1;SDS_P2;PMS_P1;PMS_P2;Temp;Humidity;BMP_temperature;BMP_pressure;BME280_temperature;BME280_humidity;BME280_pressure;Samples;Min_cycle;Max_cycle;Signal;HPM_P1;HPM_P2
2022/12/15 00:40:42;;;;;;;;;;;;;;;20.65;33.58;100658.25;7247241;19;155198;-56
2022/12/15 00:43:10;;;;;;;;;;;;;;;20.63;33.19;100659.72;7246557;19;155097;-56
2022/12/15 00:48:22;;;;;;;;;;;;;;;20.59;33.49;100665.13;7247256;19;153480;-55
2022/12/15 00:50:52;;;;;;;;;;;;;;;20.56;33.22;100665.78;7240079;19;156322;-55
2022/12/15 01:21:15;;;;;;;;;;;;;;;20.19;33.29;100682.84;7238371;19;154597;-55
2022/12/15 01:23:41;;;;;;;;;;;;;;;20.15;33.74;100677.03;7253371;19;154424;-55
2022/12/15 01:26:08;;;;;;;;;;;;;;;20.13;33.75;100673.69;7244601;19;154267;-55
2022/12/15 01:28:35;;;;;;;;;;;;;;;20.10;33.48;100681.91;7245970;19;153672;-55
2022/12/15 01:31:14;;;;;;;;;;;;;;;20.06;33.78;100680.88;7241154;19;154043;-55
2022/12/15 01:33:43;;;;;;;;;;;;;;;20.02;33.68;100677.03;7243717;19;154439;-55
2022/12/15 01:36:10;;;;;;;;;;;;;;;19.97;33.60;100683.56;7242604;19;154157;-55
2022/12/15 01:38:37;;;;;;;;;;;;;;;19.91;33.68;100680.03;7252245;19;153817;-55
2022/12/15 01:41:05;;;;;;;;;;;;;;;19.88;33.82;100682.63;7248586;19;153533;-55
2022/12/15 01:43:34;;;;;;;;;;;;;;;19.84;33.91;100682.44;7250747;19;153343;-55
2022/12/15 01:46:02;;;;;;;;;;;;;;;19.79;33.64;100684.50;7255598;19;153997;-55
2022/12/15 01:48:34;;;;;;;;;;;;;;;19.73;33.80;100680.94;7249523;19;153415;-55
2022/12/15 01:51:16;;;;;;;;;;;;;;;19.71;34.04;100694.47;7246723;19;154824;-55
2022/12/15 01:53:46;;;;;;;;;;;;;;;19.65;33.63;100690.06;7243030;19;154397;-54
2022/12/15 01:56:16;;;;;;;;;;;;;;;19.60;33.91;100687.38;7248433;19;154872;-54
2022/12/15 01:58:44;;;;;;;;;;;;;;;19.56;33.88;100691.09;7247980;19;154158;-55
2022/12/15 02:01:14;;;;;;;;;;;;;;;19.52;33.91;100697.31;7244317;19;154082;-55
2022/12/15 02:03:42;;;;;;;;;;;;;;;19.50;34.13;100698.75;7248707;19;152541;-55
2022/12/15 02:06:09;;;;;;;;;;;;;;;19.47;33.96;100699.38;7245995;19;152749;-55
2022/12/15 02:08:36;;;;;;;;;;;;;;;19.42;33.75;100702.22;7252966;19;154895;-55
2022/12/15 02:11:17;;;;;;;;;;;;;;;19.37;33.94;100708.75;7249018;19;153897;-54
2022/12/15 02:13:47;;;;;;;;;;;;;;;19.31;33.98;100700.72;7245117;19;154273;-55
2022/12/15 02:16:15;;;;;;;;;;;;;;;19.30;33.84;100708.34;7247749;19;153408;-55
2022/12/15 02:19:02;;;;;;;;;;;;;;;19.26;34.31;100707.25;7246216;19;153715;-54
2022/12/15 02:21:32;;;;;;;;;;;;;;;19.23;33.87;100709.84;7233605;19;154333;-54
2022/12/15 02:24:11;;;;;;;;;;;;;;;19.20;34.25;100704.88;7248007;19;153933;-54
2022/12/15 02:26:50;;;;;;;;;;;;;;;19.14;34.62;100708.88;7245966;19;153982;-55
2022/12/15 02:29:36;;;;;;;;;;;;;;;19.08;34.66;100703.34;7243789;19;154510;-55
2022/12/15 02:32:06;;;;;;;;;;;;;;;19.03;34.73;100709.03;7256455;19;154372;-54
2022/12/15 02:34:41;;;;;;;;;;;;;;;19.00;34.69;100711.59;7246289;19;153541;-54
2022/12/15 02:37:40;;;;;;;;;;;;;;;18.95;34.83;100711.69;7245605;19;153056;-54
2022/12/15 02:40:09;;;;;;;;;;;;;;;18.90;34.79;100717.34;7239333;19;153473;-54
2022/12/15 02:42:40;;;;;;;;;;;;;;;18.87;34.73;100720.78;7243586;19;154462;-54
2022/12/15 02:45:10;;;;;;;;;;;;;;;18.83;35.04;100717.75;7243134;19;153684;-54
2022/12/15 02:47:44;;;;;;;;;;;;;;;18.80;34.99;100728.72;7243229;19;153675;-54
2022/12/15 02:50:30;;;;;;;;;;;;;;;18.76;35.10;100738.88;7238100;19;153756;-54
2022/12/15 02:52:57;;;;;;;;;;;;;;;18.71;34.84;100733.34;7241487;19;153177;-54
2022/12/15 02:55:47;;;;;;;;;;;;;;;18.65;35.18;100733.41;7245142;19;153446;-55
2022/12/15 02:58:18;;;;;;;;;;;;;;;18.62;35.21;100730.38;7242870;19;152710;-54
2022/12/15 03:00:56;;;;;;;;;;;;;;;18.59;34.93;100730.97;7242786;19;154480;-54
2022/12/15 03:03:24;;;;;;;;;;;;;;;18.55;35.17;100739.13;7246765;19;156080;-54
2022/12/15 03:05:56;;;;;;;;;;;;;;;18.51;35.26;100729.66;7241236;19;154153;-54
2022/12/15 03:08:23;;;;;;;;;;;;;;;18.48;35.27;100737.81;7241311;19;153335;-54
2022/12/15 03:10:51;;;;;;;;;;;;;;;18.43;35.22;100735.91;7240561;19;154158;-54
2022/12/15 03:13:19;;;;;;;;;;;;;;;18.41;35.09;100740.97;7241889;19;153601;-54
2022/12/15 03:15:51;;;;;;;;;;;;;;;18.37;35.37;100739.91;7240973;19;154011;-55
2022/12/15 03:18:23;;;;;;;;;;;;;;;18.36;35.32;100749.41;7248794;19;154132;-54
2022/12/15 03:20:50;;;;;;;;;;;;;;;18.34;35.62;100748.06;7238279;19;153003;-54
2022/12/15 03:23:16;;;;;;;;;;;;;;;18.30;35.27;100741.41;7239504;19;154555;-55
2022/12/15 03:25:44;;;;;;;;;;;;;;;18.27;35.32;100741.97;7240314;19;153090;-55
2022/12/15 03:28:15;;;;;;;;;;;;;;;18.22;35.16;100740.91;7234075;19;153708;-55
2022/12/15 03:30:41;;;;;;;;;;;;;;;18.20;35.21;100737.59;7241042;19;154021;-55
2022/12/15 03:33:10;;;;;;;;;;;;;;;18.18;35.35;100739.84;7241529;19;153426;-55
2022/12/15 03:35:36;;;;;;;;;;;;;;;18.15;35.54;100732.06;7242056;19;154239;-55
2022/12/15 03:38:03;;;;;;;;;;;;;;;18.12;35.23;100729.88;7252460;19;153249;-54
2022/12/15 03:40:30;;;;;;;;;;;;;;;18.09;35.62;100736.03;7246421;19;154103;-54
2022/12/15 03:42:57;;;;;;;;;;;;;;;18.06;35.55;100739.44;7245665;19;153309;-54
2022/12/15 03:45:25;;;;;;;;;;;;;;;18.02;35.49;100735.56;7245031;19;153498;-57
2022/12/15 03:47:52;;;;;;;;;;;;;;;17.99;35.75;100738.94;7247390;19;155548;-55
2022/12/15 03:50:21;;;;;;;;;;;;;;;17.96;35.78;100745.13;7239879;19;156208;-55
2022/12/15 03:52:52;;;;;;;;;;;;;;;17.94;35.94;100740.97;7243285;19;155222;-55
2022/12/15 03:55:19;;;;;;;;;;;;;;;17.91;35.79;100749.94;7240666;19;154499;-55
2022/12/15 03:57:46;;;;;;;;;;;;;;;17.87;35.95;100741.31;7241577;19;154132;-55
2022/12/15 04:00:14;;;;;;;;;;;;;;;17.84;35.71;100738.28;7251490;19;153793;-55
2022/12/15 04:02:41;;;;;;;;;;;;;;;17.80;35.95;100732.47;7242522;19;153463;-54
2022/12/15 04:05:12;;;;;;;;;;;;;;;17.77;35.77;100727.44;7240728;19;153613;-55
2022/12/15 04:07:39;;;;;;;;;;;;;;;17.75;35.98;100724.13;7244712;19;155366;-55
2022/12/15 04:10:05;;;;;;;;;;;;;;;17.73;36.28;100718.00;7244024;19;155198;-55
2022/12/15 04:12:34;;;;;;;;;;;;;;;17.70;35.97;100721.38;7245564;19;153529;-55
2022/12/15 04:15:02;;;;;;;;;;;;;;;17.67;35.90;100727.56;7243289;19;153876;-55
2022/12/15 04:17:29;;;;;;;;;;;;;;;17.62;35.81;100722.03;7244270;19;153508;-55
2022/12/15 04:20:10;;;;;;;;;;;;;;;17.60;36.19;100727.06;7240271;19;153061;-55
2022/12/15 04:22:41;;;;;;;;;;;;;;;17.57;36.34;100725.69;7250025;19;152863;-54
2022/12/15 05:32:12;;;;;;;;;;;;;;;17.13;37.65;100744.47;7247895;19;154096;-55
2022/12/15 05:34:38;;;;;;;;;;;;;;;17.16;37.68;100743.91;7256035;19;152852;-55
2022/12/15 05:37:06;;;;;;;;;;;;;;;17.18;37.67;100747.22;7245957;19;154401;-54
2022/12/15 05:39:32;;;;;;;;;;;;;;;17.22;37.90;100745.50;7248579;19;154293;-55
2022/12/15 05:41:59;;;;;;;;;;;;;;;17.24;38.02;100740.47;7248954;19;155857;-54
2022/12/15 05:44:27;;;;;;;;;;;;;;;17.27;38.22;100737.94;7250192;19;155328;-55
2022/12/15 05:46:53;;;;;;;;;;;;;;;17.33;38.07;100749.91;7250879;19;152736;-55
2022/12/15 05:49:22;;;;;;;;;;;;;;;17.38;38.16;100760.19;7252637;19;154122;-54
2022/12/15 05:51:49;;;;;;;;;;;;;;;17.42;38.69;100758.47;7243294;19;154008;-54
2022/12/15 05:54:17;;;;;;;;;;;;;;;17.47;38.32;100755.66;7247884;19;154223;-54
2022/12/15 05:56:44;;;;;;;;;;;;;;;17.52;38.46;100753.66;7251551;19;154124;-54
2022/12/15 05:59:11;;;;;;;;;;;;;;;17.56;38.63;100749.16;7246232;19;154129;-54
2022/12/15 06:01:38;;;;;;;;;;;;;;;17.61;38.15;100756.69;7247940;19;154582;-54
2022/12/15 06:04:06;;;;;;;;;;;;;;;17.65;37.97;100769.75;7248246;19;155320;-55
2022/12/15 06:06:33;;;;;;;;;;;;;;;17.71;38.15;100757.44;7240287;19;153458;-55
2022/12/15 06:08:59;;;;;;;;;;;;;;;17.76;38.10;100750.94;7248013;19;154931;-55
2022/12/15 06:11:26;;;;;;;;;;;;;;;17.81;38.11;100761.25;7248158;19;154147;-54
2022/12/15 06:13:57;;;;;;;;;;;;;;;17.85;37.81;100749.19;7248032;19;153736;-54
2022/12/15 06:16:26;;;;;;;;;;;;;;;17.91;37.90;100747.16;7248594;19;154060;-55
2022/12/15 06:18:54;;;;;;;;;;;;;;;17.94;37.70;100750.22;7255658;19;154406;-54
2022/12/15 06:21:23;;;;;;;;;;;;;;;17.99;37.60;100755.72;7243631;19;154071;-55
2022/12/15 06:23:49;;;;;;;;;;;;;;;18.04;37.64;100761.25;7246404;19;154803;-55
2022/12/15 06:26:21;;;;;;;;;;;;;;;18.08;37.58;100756.72;7249021;19;156661;-54
2022/12/15 06:28:48;;;;;;;;;;;;;;;18.13;37.66;100753.88;7249572;19;154237;-55
2022/12/15 06:31:16;;;;;;;;;;;;;;;18.18;37.70;100762.22;7246069;19;153310;-55
2022/12/15 06:33:43;;;;;;;;;;;;;;;18.22;37.30;100752.09;7245929;19;153542;-55
2022/12/15 06:36:11;;;;;;;;;;;;;;;18.28;37.49;100766.03;7239128;19;153797;-55
2022/12/15 06:38:38;;;;;;;;;;;;;;;18.31;37.51;100762.63;7243900;19;153944;-55
2022/12/15 06:41:05;;;;;;;;;;;;;;;18.37;37.05;100761.44;7249523;19;153977;-54
2022/12/15 06:43:35;;;;;;;;;;;;;;;18.40;37.39;100760.84;7242137;19;153930;-54
2022/12/15 06:46:02;;;;;;;;;;;;;;;18.45;37.24;100763.56;7242155;19;152495;-54
2022/12/15 06:48:29;;;;;;;;;;;;;;;18.49;37.19;100768.25;7244514;19;155026;-54
2022/12/15 06:50:56;;;;;;;;;;;;;;;18.53;36.75;100765.75;7234145;19;154219;-54
2022/12/15 06:53:23;;;;;;;;;;;;;;;18.57;36.80;100767.66;7242243;19;153337;-55
2022/12/15 06:55:49;;;;;;;;;;;;;;;18.61;36.77;100768.72;7242652;19;154055;-55
2022/12/15 06:58:17;;;;;;;;;;;;;;;18.65;36.55;100777.34;7238497;19;155014;-54
2022/12/15 07:00:45;;;;;;;;;;;;;;;18.71;36.73;100775.31;7240115;19;152576;-54
2022/12/15 07:03:14;;;;;;;;;;;;;;;18.75;36.47;100781.97;7249927;19;153624;-54
2022/12/15 07:05:49;;;;;;;;;;;;;;;18.77;36.86;100791.72;7238627;19;152361;-54
2022/12/15 07:08:31;;;;;;;;;;;;;;;18.82;36.55;100786.06;7239404;19;154487;-54
2022/12/15 07:11:10;;;;;;;;;;;;;;;18.87;36.57;100787.97;7242167;19;153528;-54
2022/12/15 07:13:49;;;;;;;;;;;;;;;18.90;36.55;100784.53;7244426;19;153976;-54
2022/12/15 07:16:16;;;;;;;;;;;;;;;18.94;36.33;100791.22;7243116;19;153536;-56
2022/12/15 07:18:43;;;;;;;;;;;;;;;18.99;36.53;100785.53;7241845;19;155551;-56
2022/12/15 07:21:11;;;;;;;;;;;;;;;19.02;37.03;100787.75;7238986;19;153701;-54
2022/12/15 07:23:39;;;;;;;;;;;;;;;19.05;36.54;100790.78;7238663;19;155803;-56
2022/12/15 07:26:20;;;;;;;;;;;;;;;19.08;36.32;100792.13;7248758;19;154649;-54
2022/12/15 07:28:47;;;;;;;;;;;;;;;19.10;36.19;100798.25;7242932;19;153264;-54
2022/12/15 07:31:18;;;;;;;;;;;;;;;19.12;36.14;100793.22;7244010;19;156095;-54
2022/12/15 07:33:47;;;;;;;;;;;;;;;19.16;36.21;100788.66;7247194;19;154865;-56
2022/12/15 07:36:14;;;;;;;;;;;;;;;19.17;35.90;100784.69;7241348;19;153974;-56
2022/12/15 07:38:40;;;;;;;;;;;;;;;19.20;35.65;100791.69;7242753;19;153340;-56
2022/12/15 07:41:11;;;;;;;;;;;;;;;19.21;35.48;100793.34;7243178;19;153387;-55
2022/12/15 07:43:38;;;;;;;;;;;;;;;19.23;35.41;100791.06;7244875;19;153902;-56
2022/12/15 07:46:05;;;;;;;;;;;;;;;19.25;35.49;100786.00;7252962;19;154697;-56
2022/12/15 07:48:32;;;;;;;;;;;;;;;19.27;35.39;100792.97;7247178;19;153912;-56
2022/12/15 07:51:03;;;;;;;;;;;;;;;19.30;34.99;100795.16;7240821;19;154605;-56
2022/12/15 07:53:41;;;;;;;;;;;;;;;19.19;33.50;100793.66;7249627;19;153838;-55
2022/12/15 07:56:10;;;;;;;;;;;;;;;19.10;32.33;100792.66;7242259;19;153713;-56
2022/12/15 07:58:37;;;;;;;;;;;;;;;19.17;32.67;100801.50;7242815;19;154844;-56
2022/12/15 08:01:05;;;;;;;;;;;;;;;19.18;32.25;100791.13;7238257;19;154847;-56
2022/12/15 08:03:33;;;;;;;;;;;;;;;19.19;32.23;100798.41;7241018;19;156339;-56
2022/12/15 08:06:03;;;;;;;;;;;;;;;19.21;32.55;100796.16;7237737;19;154224;-55
2022/12/15 08:08:30;;;;;;;;;;;;;;;19.22;32.67;100803.41;7247795;19;153474;-55
2022/12/15 08:10:58;;;;;;;;;;;;;;;19.22;32.68;100823.00;7246180;19;156260;-56
2022/12/15 08:13:25;;;;;;;;;;;;;;;19.23;32.54;100813.47;7252710;19;153891;-55
2022/12/15 08:16:12;;;;;;;;;;;;;;;19.23;32.39;100814.31;7251832;19;154538;-56
2022/12/15 08:18:39;;;;;;;;;;;;;;;19.25;32.48;100822.41;7249758;19;154962;-55
2022/12/15 08:21:09;;;;;;;;;;;;;;;19.25;32.45;100817.66;7248281;19;154677;-56
2022/12/15 08:23:37;;;;;;;;;;;;;;;19.26;32.31;100821.28;7248015;19;153314;-55
2022/12/15 08:26:06;;;;;;;;;;;;;;;19.28;32.66;100824.59;7252651;19;152941;-55
2022/12/15 08:28:34;;;;;;;;;;;;;;;19.30;32.52;100836.34;7250046;19;153703;-55
2022/12/15 08:31:07;;;;;;;;;;;;;;;19.32;32.46;100820.91;7254693;19;154423;-56
2022/12/15 08:33:34;;;;;;;;;;;;;;;19.36;32.42;100827.56;7246006;19;152846;-56
2022/12/15 08:36:03;;;;;;;;;;;;;;;19.37;32.38;100822.78;7241905;19;154323;-56
2022/12/15 08:38:30;;;;;;;;;;;;;;;19.39;32.75;100828.94;7246402;19;154327;-56
2022/12/15 08:41:05;;;;;;;;;;;;;;;19.41;32.40;100830.28;7246072;19;153926;-55
2022/12/15 08:43:34;;;;;;;;;;;;;;;19.43;32.98;100829.97;7245870;19;155232;-55
2022/12/15 08:46:01;;;;;;;;;;;;;;;19.44;32.96;100838.09;7246929;19;154332;-55
2022/12/15 08:48:28;;;;;;;;;;;;;;;19.45;32.88;100836.13;7249817;19;154500;-56
2022/12/15 08:50:58;;;;;;;;;;;;;;;19.46;33.13;100835.84;7249338;19;153756;-55
2022/12/15 08:53:26;;;;;;;;;;;;;;;19.48;32.92;100850.38;7255849;19;153625;-55
2022/12/15 08:56:05;;;;;;;;;;;;;;;19.50;33.16;100845.31;7249476;19;153682;-55
2022/12/15 08:58:33;;;;;;;;;;;;;;;19.52;32.90;100845.00;7247888;19;154138;-55
2022/12/15 09:01:24;;;;;;;;;;;;;;;19.53;32.77;100844.69;7240914;19;154258;-56
2022/12/15 09:03:52;;;;;;;;;;;;;;;19.56;32.81;100851.66;7244011;19;152927;-55
2022/12/15 09:06:27;;;;;;;;;;;;;;;19.57;33.05;100856.13;7242571;19;154147;-56
2022/12/15 09:09:09;;;;;;;;;;;;;;;19.60;32.96;100858.31;7247411;19;152921;-55
2022/12/15 09:11:36;;;;;;;;;;;;;;;19.62;32.80;100867.28;7246759;19;152959;-55
2022/12/15 09:14:03;;;;;;;;;;;;;;;19.65;33.09;100871.44;7246257;19;154332;-54
2022/12/15 09:16:30;;;;;;;;;;;;;;;19.66;32.70;100870.28;7254601;19;154047;-54
2022/12/15 09:18:58;;;;;;;;;;;;;;;19.68;32.86;100882.00;7243494;19;154346;-54
2022/12/15 09:21:27;;;;;;;;;;;;;;;19.70;32.77;100880.59;7240990;19;153837;-55
2022/12/15 09:23:58;;;;;;;;;;;;;;;19.72;32.99;100883.91;7245849;19;153974;-54
2022/12/15 09:26:27;;;;;;;;;;;;;;;19.74;32.92;100878.00;7245173;19;153790;-55
2022/12/15 09:28:54;;;;;;;;;;;;;;;19.77;32.81;100883.00;7248680;19;153850;-54
2022/12/15 09:33:58;;;;;;;;;;;;;;;19.79;32.86;100892.78;7250949;19;153678;-55
2022/12/15 09:36:26;;;;;;;;;;;;;;;19.82;32.77;100894.97;7249050;19;154283;-55
2022/12/15 09:38:53;;;;;;;;;;;;;;;19.83;32.53;100890.19;7257043;19;153615;-54
2022/12/15 09:41:22;;;;;;;;;;;;;;;19.84;32.33;100895.50;7249052;19;152974;-55
2022/12/15 09:43:53;;;;;;;;;;;;;;;19.85;32.41;100897.16;7250129;19;153712;-54
2022/12/15 09:46:33;;;;;;;;;;;;;;;19.86;32.37;100886.78;7250835;19;154691;-55
2022/12/15 09:49:02;;;;;;;;;;;;;;;19.88;31.91;100890.94;7253294;19;154752;-55
2022/12/15 09:51:34;;;;;;;;;;;;;;;19.89;31.79;100895.44;7245425;19;153957;-54
2022/12/15 09:54:01;;;;;;;;;;;;;;;19.88;31.89;100884.50;7248501;19;153563;-55
2022/12/15 09:56:38;;;;;;;;;;;;;;;19.88;31.88;100893.75;7246422;19;154263;-55
2022/12/15 09:59:15;;;;;;;;;;;;;;;19.88;31.58;100904.13;7253245;19;154689;-55
2022/12/15 10:01:46;;;;;;;;;;;;;;;19.87;31.51;100906.09;7247768;19;154636;-54
2022/12/15 10:04:23;;;;;;;;;;;;;;;19.86;31.62;100915.66;7248168;19;153926;-54
2022/12/15 10:07:03;;;;;;;;;;;;;;;19.86;31.26;100903.59;7244104;19;155921;-54
2022/12/15 10:09:30;;;;;;;;;;;;;;;19.84;31.25;100915.13;7247392;19;154279;-55
2022/12/15 10:12:00;;;;;;;;;;;;;;;19.84;31.15;100917.09;7248264;19;153058;-54
2022/12/15 10:14:37;;;;;;;;;;;;;;;19.84;31.37;100923.53;7249417;19;155303;-55
2022/12/15 10:17:16;;;;;;;;;;;;;;;19.82;31.44;100922.16;7249241;19;153791;-54
2022/12/15 10:19:48;;;;;;;;;;;;;;;19.81;31.39;100928.91;7248519;19;153491;-54
2022/12/15 10:22:20;;;;;;;;;;;;;;;19.79;31.02;100934.84;7254085;19;155257;-55
2022/12/15 10:24:47;;;;;;;;;;;;;;;19.78;31.29;100929.53;7243065;19;154302;-55
2022/12/15 10:27:45;;;;;;;;;;;;;;;19.76;31.26;100934.63;7246853;19;154562;-54
2022/12/15 10:30:14;;;;;;;;;;;;;;;19.75;30.88;100930.97;7244391;19;153280;-55
2022/12/15 10:32:48;;;;;;;;;;;;;;;19.73;30.83;100938.84;7245057;19;154038;-54
2022/12/15 10:35:20;;;;;;;;;;;;;;;19.71;31.14;100938.31;7239010;19;154591;-54
2022/12/15 10:37:47;;;;;;;;;;;;;;;19.69;30.98;100928.53;7243548;19;153573;-55
2022/12/15 10:40:17;;;;;;;;;;;;;;;19.67;30.60;100931.63;7246029;19;153283;-54
2022/12/15 10:42:46;;;;;;;;;;;;;;;19.65;30.95;100928.31;7243814;19;155182;-54
2022/12/15 10:45:23;;;;;;;;;;;;;;;19.63;30.98;100932.53;7251446;19;153405;-54
2022/12/15 10:47:58;;;;;;;;;;;;;;;19.61;30.66;100932.03;7243173;19;153545;-54
2022/12/15 10:50:26;;;;;;;;;;;;;;;19.59;30.67;100935.13;7244176;19;152790;-55
2022/12/15 10:52:53;;;;;;;;;;;;;;;19.57;30.79;100928.16;7246559;19;153794;-54
2022/12/15 10:55:30;;;;;;;;;;;;;;;19.53;30.56;100931.56;7243378;19;154404;-54
2022/12/15 10:57:58;;;;;;;;;;;;;;;19.50;30.59;100936.94;7247071;19;153475;-55
2022/12/15 11:00:27;;;;;;;;;;;;;;;19.47;30.99;100926.34;7242764;19;153924;-54
2022/12/15 11:03:30;;;;;;;;;;;;;;;19.45;30.51;100931.41;7237160;19;153155;-55
2022/12/15 11:06:18;;;;;;;;;;;;;;;19.40;30.63;100923.88;7240445;19;153785;-56
2022/12/15 11:08:46;;;;;;;;;;;;;;;19.36;31.01;100922.81;7246870;19;154092;-56
2022/12/15 11:14:05;;;;;;;;;;;;;;;19.30;31.09;100923.19;7240590;19;153919;-56
2022/12/15 11:16:33;;;;;;;;;;;;;;;19.28;30.77;100919.84;7240655;19;154811;-54
2022/12/15 11:19:12;;;;;;;;;;;;;;;19.24;30.76;100924.38;7242341;19;152645;-56
2022/12/15 11:21:43;;;;;;;;;;;;;;;19.20;30.85;100912.97;7236700;19;155150;-56
2022/12/15 11:24:16;;;;;;;;;;;;;;;19.18;31.21;100909.59;7240410;19;155160;-53
2022/12/15 11:26:53;;;;;;;;;;;;;;;19.14;31.14;100913.31;7247015;19;154258;-56
2022/12/15 11:29:33;;;;;;;;;;;;;;;19.09;31.03;100903.00;7246861;19;153744;-56
2022/12/15 11:32:00;;;;;;;;;;;;;;;19.08;31.10;100906.94;7252468;19;154214;-56
2022/12/15 11:34:35;;;;;;;;;;;;;;;19.03;31.03;100899.44;7245246;19;157352;-55
2022/12/15 11:37:02;;;;;;;;;;;;;;;19.01;30.90;100893.31;7242109;19;155235;-55
2022/12/15 11:39:40;;;;;;;;;;;;;;;18.97;31.25;100899.81;7246569;19;152681;-55
2022/12/15 11:42:13;;;;;;;;;;;;;;;18.94;30.85;100901.22;7246415;19;153843;-55
2022/12/15 11:44:47;;;;;;;;;;;;;;;18.92;31.10;100902.66;7240822;19;153244;-55
2022/12/15 11:47:24;;;;;;;;;;;;;;;18.87;31.36;100897.97;7245674;19;153520;-55
2022/12/15 11:50:06;;;;;;;;;;;;;;;18.85;31.21;100900.22;7242656;19;155209;-55
2022/12/15 11:52:43;;;;;;;;;;;;;;;18.82;31.02;100898.03;7241685;19;154056;-55
2022/12/15 11:55:20;;;;;;;;;;;;;;;18.79;31.50;100892.19;7252552;19;154631;-55
2022/12/15 11:58:05;;;;;;;;;;;;;;;18.74;31.16;100895.88;7248465;19;155160;-55
2022/12/15 12:00:36;;;;;;;;;;;;;;;18.72;31.22;100884.16;7248620;19;153311;-55
2022/12/15 12:03:10;;;;;;;;;;;;;;;18.72;31.17;100888.91;7236472;19;154644;-55
2022/12/15 12:05:45;;;;;;;;;;;;;;;18.71;31.41;100881.66;7238301;19;155661;-55
2022/12/15 12:08:28;;;;;;;;;;;;;;;18.71;31.14;100876.06;7247696;19;153884;-55
2022/12/15 12:11:03;;;;;;;;;;;;;;;18.71;31.51;100882.50;7245629;19;152694;-55
2022/12/15 12:13:40;;;;;;;;;;;;;;;18.73;31.49;100880.22;7244987;19;153370;-55
2022/12/15 12:16:08;;;;;;;;;;;;;;;18.76;31.41;100882.41;7252329;19;153846;-55
2022/12/15 12:18:41;;;;;;;;;;;;;;;18.79;31.72;100879.03;7245470;19;153397;-55
2022/12/15 12:21:13;;;;;;;;;;;;;;;18.81;31.92;100876.75;7242409;19;154314;-55
2022/12/15 12:23:41;;;;;;;;;;;;;;;18.84;31.79;100880.94;7241725;19;154110;-54
2022/12/15 12:26:14;;;;;;;;;;;;;;;18.88;31.53;100882.00;7244454;19;155295;-54
2022/12/15 12:28:45;;;;;;;;;;;;;;;18.89;31.55;100873.31;7240751;19;153006;-55
2022/12/15 12:31:25;;;;;;;;;;;;;;;18.93;31.57;100873.56;7240710;19;154036;-55
2022/12/15 12:33:54;;;;;;;;;;;;;;;18.95;31.97;100863.69;7237602;19;155289;-55
2022/12/15 12:36:21;;;;;;;;;;;;;;;18.99;31.83;100872.31;7238045;19;153869;-54
2022/12/15 12:38:51;;;;;;;;;;;;;;;19.02;32.01;100866.16;7246947;19;154425;-54
2022/12/15 12:41:28;;;;;;;;;;;;;;;19.05;31.55;100868.34;7241454;19;154600;-54
2022/12/15 12:43:59;;;;;;;;;;;;;;;19.08;31.79;100854.56;7239127;19;154529;-55
2022/12/15 12:46:26;;;;;;;;;;;;;;;19.13;31.92;100855.63;7236624;19;154569;-54
2022/12/15 12:48:55;;;;;;;;;;;;;;;19.15;31.67;100848.59;7238913;19;152662;-54
2022/12/15 12:51:23;;;;;;;;;;;;;;;19.18;31.80;100848.00;7234900;19;154104;-55
2022/12/15 12:53:50;;;;;;;;;;;;;;;19.21;31.57;100850.22;7239191;19;155164;-54
2022/12/15 12:56:27;;;;;;;;;;;;;;;19.25;31.88;100848.47;7238564;19;153881;-54
2022/12/15 12:58:54;;;;;;;;;;;;;;;19.29;31.89;100843.09;7245591;19;153842;-54
2022/12/15 13:01:31;;;;;;;;;;;;;;;19.33;31.94;100853.38;7246382;19;154445;-55
2022/12/15 13:04:08;;;;;;;;;;;;;;;19.36;31.49;100849.97;7242403;19;154872;-54
2022/12/15 13:06:35;;;;;;;;;;;;;;;19.40;31.63;100848.22;7241308;19;153978;-54
2022/12/15 13:09:22;;;;;;;;;;;;;;;19.42;31.46;100848.75;7247495;19;153249;-54
2022/12/15 13:11:50;;;;;;;;;;;;;;;19.46;31.50;100851.81;7245160;19;155111;-55
2022/12/15 13:14:18;;;;;;;;;;;;;;;19.48;31.03;100841.16;7244708;19;153908;-55
2022/12/15 13:17:01;;;;;;;;;;;;;;;19.49;30.87;100840.81;7244459;19;153514;-55
2022/12/15 13:19:57;;;;;;;;;;;;;;;19.50;30.80;100839.69;7246383;19;155504;-55
2022/12/15 13:22:45;;;;;;;;;;;;;;;19.51;30.78;100840.53;7244635;19;158299;-55
2022/12/15 13:25:25;;;;;;;;;;;;;;;19.51;30.70;100841.38;7256484;19;154070;-55
2022/12/15 13:27:56;;;;;;;;;;;;;;;19.50;30.68;100836.91;7247143;19;153570;-55
2022/12/15 13:30:23;;;;;;;;;;;;;;;19.50;30.65;100828.50;7246987;19;153455;-55
2022/12/15 13:32:52;;;;;;;;;;;;;;;19.50;30.32;100828.50;7246304;19;154699;-55
2022/12/15 13:35:25;;;;;;;;;;;;;;;19.50;30.25;100828.50;7246812;19;153509;-55
2022/12/15 13:37:53;;;;;;;;;;;;;;;19.48;30.34;100830.78;7249465;19;153000;-55
2022/12/15 13:40:33;;;;;;;;;;;;;;;19.48;30.39;100833.59;7247797;19;153744;-55
2022/12/15 13:43:04;;;;;;;;;;;;;;;19.46;30.40;100824.63;7246845;19;154881;-55
2022/12/15 13:45:34;;;;;;;;;;;;;;;19.46;30.47;100829.41;7246883;19;153405;-55
2022/12/15 13:48:12;;;;;;;;;;;;;;;19.44;30.54;100818.50;7254634;19;153259;-55
2022/12/15 13:50:43;;;;;;;;;;;;;;;19.43;30.30;100813.19;7247962;19;154189;-55
2022/12/15 13:53:19;;;;;;;;;;;;;;;19.41;30.64;100819.06;7250609;19;154849;-55
2022/12/15 13:55:59;;;;;;;;;;;;;;;19.40;30.27;100814.59;7245021;19;153579;-55
2022/12/15 13:58:27;;;;;;;;;;;;;;;19.39;30.41;100814.91;7249137;19;153100;-55
2022/12/15 14:00:55;;;;;;;;;;;;;;;19.37;30.30;100819.97;7247041;19;153086;-55
2022/12/15 14:03:23;;;;;;;;;;;;;;;19.34;30.71;100809.41;7248466;19;154367;-55
2022/12/15 14:05:55;;;;;;;;;;;;;;;19.32;30.33;100811.66;7241979;19;154055;-55
2022/12/15 14:08:25;;;;;;;;;;;;;;;19.28;30.30;100811.44;7244468;19;154203;-55
2022/12/15 14:10:54;;;;;;;;;;;;;;;19.25;30.49;100816.81;7254081;19;153606;-55
2022/12/15 14:13:23;;;;;;;;;;;;;;;19.23;30.62;100802.28;7245015;19;153450;-55
2022/12/15 14:15:53;;;;;;;;;;;;;;;19.21;30.28;100812.97;7242672;19;155485;-56
2022/12/15 14:18:21;;;;;;;;;;;;;;;19.19;30.47;100812.41;7245109;19;153190;-55
2022/12/15 14:20:49;;;;;;;;;;;;;;;19.16;30.29;100811.06;7243464;19;154673;-55
2022/12/15 14:23:19;;;;;;;;;;;;;;;19.13;30.26;100817.25;7245215;19;153847;-55
2022/12/15 14:25:55;;;;;;;;;;;;;;;19.12;30.31;100814.78;7242240;19;154390;-55
2022/12/15 14:28:23;;;;;;;;;;;;;;;19.09;30.52;100810.59;7246091;19;153598;-55
2022/12/15 14:30:50;;;;;;;;;;;;;;;19.07;30.24;100810.91;7246183;19;154579;-55
2022/12/15 14:33:18;;;;;;;;;;;;;;;19.05;30.54;100803.94;7242908;19;154458;-55
2022/12/15 14:35:47;;;;;;;;;;;;;;;19.03;30.29;100815.44;7235864;19;154522;-54
2022/12/15 14:38:25;;;;;;;;;;;;;;;18.99;30.48;100813.53;7239035;19;153253;-55
2022/12/15 14:40:54;;;;;;;;;;;;;;;18.95;30.64;100802.09;7237740;19;153516;-55
2022/12/15 14:43:34;;;;;;;;;;;;;;;18.94;30.29;100808.03;7237135;19;153863;-55
2022/12/15 14:46:08;;;;;;;;;;;;;;;18.88;30.62;100807.25;7242770;19;153568;-55
2022/12/15 14:48:37;;;;;;;;;;;;;;;18.86;30.78;100812.31;7241633;19;153998;-55
2022/12/15 14:51:09;;;;;;;;;;;;;;;18.82;30.83;100816.00;7237619;19;156575;-55
2022/12/15 14:53:42;;;;;;;;;;;;;;;18.77;30.53;100818.88;7249876;19;154323;-55
2022/12/15 14:56:12;;;;;;;;;;;;;;;18.74;30.63;100828.72;7240164;19;153180;-54
2022/12/15 14:58:40;;;;;;;;;;;;;;;18.74;30.97;100823.13;7242506;19;153315;-55
2022/12/15 15:01:16;;;;;;;;;;;;;;;18.71;30.83;100823.72;7237091;19;154573;-55
2022/12/15 15:03:41;;;;;;;;;;;;;;;18.70;31.07;100824.84;7235435;19;154108;-55
2022/12/15 15:06:10;;;;;;;;;;;;;;;18.72;30.87;100816.13;7231397;19;154519;-55
2022/12/15 15:08:45;;;;;;;;;;;;;;;18.73;30.92;100827.03;7234589;19;154124;-55
2022/12/15 15:13:59;;;;;;;;;;;;;;;18.77;31.17;100830.91;7240617;19;153364;-54